Terminal Aerodrome Forecast
Issued by NWS

Home | Current Version | Previous Version | Text Only | Print | Product List | Glossary On
Versions: 1 2 3 4 5 6 7 8 9 10 11 12 13 14 15 16 17
000
FTUS45 KTFX 211100
TAFGTF
TAF
KGTF 211140Z 2112/2212 20012KT P6SM SCT080 BKN140
     FM211700 26015G25KT 6SM -SHRA BKN060
      TEMPO 2118/2122 -TSRA BKN060CB
     FM220000 24015G25KT P6SM VCSH BKN060
     FM220500 22012KT P6SM SCT060 BKN120=

USA.gov is the U.S. government's official web portal to all federal, state and local government web resources and services.